Paso de los Libres, Argentina
Current Conditions -  °F | °C
As of 8:00 AM on Thursday 27 Nov 2014 (Local Time) from SARL Reporting Station
Clear Clear  
Wind Chill: 70°   Ceiling: Unl
Heat Index: 70°   Visibility: 6mi
Dew Point: 64°   Wind: 3mph
Humidity: 83%   Direction: 140°SE
Pressure: 29.94"   Gusts: NA
Location:  29.72°S, 57.08°W
Report Text: SARL 271100Z 14003KT CAVOK 21/18 Q1014
Loading
Personal Weather Stations






























Interactive Weather Map New forecast layout! Learn more

10-Day Weather Forecast

Advertisements
Track Severe Weather on mobile